Terminal Aerodrome Forecast
Issued by NWS

Home | Current Version | Previous Version | Text Only | Print | Product List | Glossary On
Versions: 1 2 3 4 5 6 7 8 9 10 11 12 13 14 15 16 17 18 19 20 21 22 23 24
681
FTUS46 KMTR 241503 AAA
TAFSFO
TAF AMD
KSFO 241503Z 2415/2518 29008KT P6SM SKC
     FM241900 30012KT P6SM SKC
     FM242100 29016G22KT P6SM SKC
     FM250400 29012KT P6SM SKC
     FM250700 28007KT P6SM BKN010
     FM250900 26005KT P6SM OVC007=

USA.gov is the U.S. government's official web portal to all federal, state and local government web resources and services.